Time;durP1;ratioP1;P1;durP2;ratioP2;P2;SDS_P1;SDS_P2;PMS_P1;PMS_P2;Temp;Humidity;BMP_temperature;BMP_pressure;BME280_temperature;BME280_humidity;BME280_pressure;Samples;Min_cycle;Max_cycle;Signal;HPM_P1;HPM_P2
2022/11/09 00:04:25;;;;;;;10.00;8.97;;;;;13.40;98549.00;;;;16639286;28;20291;-48
2022/11/09 00:12:28;;;;;;;8.57;7.53;;;;;13.00;98544.00;;;;16646139;28;20236;-47
2022/11/09 00:20:31;;;;;;;8.17;7.30;;;;;13.20;98541.00;;;;16646250;28;20222;-48
2022/11/09 00:28:34;;;;;;;30.30;23.53;;;;;13.20;98527.00;;;;16646023;28;20234;-47
2022/11/09 00:36:38;;;;;;;11.80;9.70;;;;;13.10;98541.00;;;;16645536;28;21389;-47
2022/11/09 00:44:44;;;;;;;11.17;8.80;;;;;13.40;98527.00;;;;16644151;28;20233;-47
2022/11/09 00:52:47;;;;;;;8.43;7.63;;;;;13.60;98522.00;;;;16643849;28;20353;-48
2022/11/09 01:00:50;;;;;;;8.37;7.53;;;;;13.80;98524.00;;;;16634488;28;20216;-48
2022/11/09 01:08:54;;;;;;;10.60;8.37;;;;;13.60;98508.00;;;;16655657;28;20305;-48
2022/11/09 01:16:57;;;;;;;10.97;8.20;;;;;13.50;98523.00;;;;16655903;28;20197;-47
2022/11/09 01:25:03;;;;;;;10.20;8.67;;;;;13.90;98526.00;;;;16652197;28;20260;-47
2022/11/09 01:33:06;;;;;;;8.93;7.50;;;;;13.30;98531.00;;;;16657017;28;20230;-47
2022/11/09 01:41:14;;;;;;;11.03;8.97;;;;;13.60;98531.00;;;;16653789;28;20339;-47
2022/11/09 01:49:24;;;;;;;10.20;9.20;;;;;13.80;98517.00;;;;16654830;28;20312;-47
2022/11/09 01:57:31;;;;;;;11.33;10.23;;;;;13.40;98520.00;;;;16649422;28;20359;-47
2022/11/09 02:05:36;;;;;;;10.60;9.60;;;;;13.30;98516.00;;;;16647478;28;20624;-48
2022/11/09 02:13:43;;;;;;;11.10;9.77;;;;;13.60;98523.00;;;;16651039;28;20236;-47
2022/11/09 02:21:47;;;;;;;10.50;8.97;;;;;13.60;98513.00;;;;16651976;28;20368;-48
2022/11/09 02:29:49;;;;;;;12.70;10.17;;;;;13.70;98513.00;;;;16652925;28;20219;-48
2022/11/09 02:37:54;;;;;;;8.80;7.90;;;;;14.00;98510.00;;;;16651661;28;20206;-47
2022/11/09 02:45:57;;;;;;;10.93;9.63;;;;;14.20;98510.00;;;;16651180;28;20210;-48
2022/11/09 02:54:01;;;;;;;9.43;8.63;;;;;13.60;98538.00;;;;16650215;28;20228;-47
2022/11/09 03:02:04;;;;;;;11.10;10.03;;;;;13.80;98553.00;;;;16649497;28;20222;-47
2022/11/09 03:10:10;;;;;;;9.63;8.33;;;;;13.90;98571.00;;;;16649016;28;20240;-47
2022/11/09 03:18:13;;;;;;;9.80;8.83;;;;;13.70;98575.00;;;;16649268;28;20213;-47
2022/11/09 03:26:17;;;;;;;15.83;9.60;;;;;14.00;98574.00;;;;16658992;28;20210;-47
2022/11/09 03:34:20;;;;;;;9.93;8.93;;;;;13.70;98575.00;;;;16649390;28;20272;-48
2022/11/09 03:42:24;;;;;;;9.90;8.30;;;;;14.10;98586.00;;;;16647300;28;20735;-48
2022/11/09 03:50:27;;;;;;;11.03;9.50;;;;;14.20;98585.00;;;;16644865;28;20254;-47
2022/11/09 03:58:31;;;;;;;11.30;10.10;;;;;13.60;98582.00;;;;16646557;28;20246;-47
2022/11/09 04:06:33;;;;;;;12.27;9.33;;;;;13.80;98579.00;;;;16647092;28;20333;-47
2022/11/09 04:14:37;;;;;;;11.27;10.17;;;;;14.30;98590.00;;;;16647164;28;20592;-48
2022/11/09 04:22:40;;;;;;;10.13;8.97;;;;;14.20;98601.00;;;;16646905;28;20214;-47
2022/11/09 04:30:43;;;;;;;10.70;9.13;;;;;13.70;98621.00;;;;16645630;28;20750;-47
2022/11/09 04:38:46;;;;;;;14.00;12.47;;;;;13.30;98618.00;;;;16645281;28;20315;-47
2022/11/09 04:46:50;;;;;;;13.03;11.40;;;;;13.20;98620.00;;;;16644892;28;20223;-48
2022/11/09 04:54:52;;;;;;;12.33;11.03;;;;;13.10;98617.00;;;;16644946;28;20283;-47
2022/11/09 05:02:59;;;;;;;12.70;11.40;;;;;13.00;98599.00;;;;16656375;23;20267;-47
2022/11/09 05:11:01;;;;;;;10.37;9.37;;;;;12.90;98582.00;;;;16637249;28;20590;-47
2022/11/09 05:19:05;;;;;;;11.10;9.63;;;;;13.00;98583.00;;;;16647170;28;20304;-48
2022/11/09 05:27:07;;;;;;;11.83;9.73;;;;;13.30;98620.00;;;;16648626;28;20242;-48
2022/11/09 05:35:11;;;;;;;12.83;11.53;;;;;13.10;98587.00;;;;16643771;28;20682;-47
2022/11/09 05:43:14;;;;;;;14.30;11.17;;;;;13.20;98580.00;;;;16644467;28;20217;-47
2022/11/09 05:51:17;;;;;;;11.60;10.50;;;;;13.20;98586.00;;;;16644825;28;20237;-48
2022/11/09 05:59:20;;;;;;;10.73;9.10;;;;;13.10;98580.00;;;;16649087;28;20318;-47
2022/11/09 06:07:24;;;;;;;9.70;8.70;;;;;13.20;98572.00;;;;16646686;28;20316;-47
2022/11/09 06:15:26;;;;;;;10.80;9.80;;;;;13.30;98586.00;;;;16650630;28;20688;-47
2022/11/09 06:23:30;;;;;;;10.40;9.37;;;;;13.30;98595.00;;;;16651795;28;20406;-48
2022/11/09 06:31:33;;;;;;;10.47;9.37;;;;;13.50;98601.00;;;;16649838;28;20371;-48
2022/11/09 06:39:36;;;;;;;11.70;10.70;;;;;13.80;98618.00;;;;16649172;28;20441;-47
2022/11/09 06:47:39;;;;;;;9.90;9.00;;;;;13.80;98622.00;;;;16648865;28;20226;-48
2022/11/09 06:55:43;;;;;;;10.67;9.60;;;;;14.00;98621.00;;;;16645932;28;20237;-48
2022/11/09 07:03:46;;;;;;;11.90;10.53;;;;;14.10;98626.00;;;;16646486;28;20728;-47
2022/11/09 07:11:50;;;;;;;9.33;8.47;;;;;14.30;98646.00;;;;16649626;28;20222;-48
2022/11/09 07:19:53;;;;;;;10.10;8.83;;;;;13.80;98652.00;;;;16648428;28;20214;-47
2022/11/09 07:28:03;;;;;;;11.50;10.30;;;;;13.30;98701.00;;;;16647673;28;20349;-47
2022/11/09 07:36:06;;;;;;;9.97;8.53;;;;;13.30;98738.00;;;;16648827;28;20233;-48
2022/11/09 07:44:13;;;;;;;7.57;6.87;;;;;13.90;98723.00;;;;16648254;28;20822;-47
2022/11/09 07:52:16;;;;;;;16.93;15.20;;;;;13.90;98687.00;;;;16639961;28;20214;-46
2022/11/09 08:00:20;;;;;;;12.20;11.00;;;;;14.90;98683.00;;;;16626929;28;20280;-47
2022/11/09 08:08:23;;;;;;;12.10;9.13;;;;;14.30;98709.00;;;;16629621;28;20768;-48
2022/11/09 08:16:27;;;;;;;9.17;8.27;;;;;14.60;98702.00;;;;16628531;28;20238;-47
2022/11/09 08:24:29;;;;;;;8.57;7.70;;;;;15.20;98704.00;;;;16619968;28;20278;-48
2022/11/09 08:32:33;;;;;;;10.83;9.17;;;;;15.00;98702.00;;;;16630998;28;20321;-47
2022/11/09 08:40:36;;;;;;;10.70;9.60;;;;;14.40;98697.00;;;;16623995;28;20762;-48
2022/11/09 08:48:39;;;;;;;10.27;9.40;;;;;14.50;98711.00;;;;16623164;28;20721;-48
2022/11/09 08:56:42;;;;;;;13.20;9.57;;;;;14.50;98705.00;;;;16627536;28;20222;-48
2022/11/09 09:04:46;;;;;;;12.40;9.97;;;;;14.50;98710.00;;;;16620671;28;20224;-48
2022/11/09 09:12:48;;;;;;;11.97;9.20;;;;;14.70;98687.00;;;;16625055;28;21118;-48
2022/11/09 09:20:52;;;;;;;7.63;6.93;;;;;14.80;98693.00;;;;16630504;28;20232;-48
2022/11/09 09:28:55;;;;;;;12.00;7.30;;;;;14.90;98700.00;;;;16634461;28;20676;-48
2022/11/09 09:36:59;;;;;;;7.53;6.93;;;;;14.80;98722.00;;;;16644041;28;20222;-46
2022/11/09 09:45:04;;;;;;;9.50;7.43;;;;;15.20;98712.00;;;;16629922;28;20302;-48
2022/11/09 09:53:14;;;;;;;9.00;6.43;;;;;15.50;98705.00;;;;16635571;28;20312;-48
2022/11/09 10:01:19;;;;;;;4.40;4.00;;;;;15.80;98711.00;;;;16638543;28;20356;-48
2022/11/09 10:09:30;;;;;;;4.37;4.03;;;;;15.90;98705.00;;;;16642480;28;20239;-48
2022/11/09 10:17:38;;;;;;;7.70;6.27;;;;;16.40;98708.00;;;;16652622;28;20218;-48
2022/11/09 10:25:45;;;;;;;5.27;4.77;;;;;16.40;98692.00;;;;16650940;28;20208;-48
2022/11/09 10:33:51;;;;;;;6.97;5.27;;;;;16.60;98680.00;;;;16652264;28;20225;-48
2022/11/09 10:41:55;;;;;;;5.73;4.27;;;;;16.70;98661.00;;;;16648615;28;20353;-48
2022/11/09 10:50:23;;;;;;;9.07;5.30;;;;;17.50;98649.00;;;;16649559;28;20226;-48
2022/11/09 10:58:48;;;;;;;5.23;4.73;;;;;17.30;98643.00;;;;16649361;28;20325;-48
2022/11/09 11:07:15;;;;;;;3.70;3.40;;;;;17.40;98636.00;;;;16653360;28;20227;-48
2022/11/09 11:15:39;;;;;;;4.07;3.10;;;;;17.50;98635.00;;;;16643255;28;20214;-48
2022/11/09 11:24:11;;;;;;;4.03;3.30;;;;;17.30;98630.00;;;;16648625;28;20199;-48
2022/11/09 11:32:33;;;;;;;3.97;3.20;;;;;17.40;98621.00;;;;16646615;28;20722;-47
2022/11/09 11:41:01;;;;;;;3.80;3.33;;;;;17.30;98616.00;;;;16648149;28;20227;-49
2022/11/09 11:49:57;;;;;;;3.63;3.37;;;;;17.20;98618.00;;;;16641020;28;20227;-48
2022/11/09 11:58:28;;;;;;;3.73;2.80;;;;;17.50;98611.00;;;;16645143;28;20607;-48
2022/11/09 12:07:15;;;;;;;3.40;3.10;;;;;17.60;98611.00;;;;16648123;28;20218;-48
2022/11/09 12:15:47;;;;;;;3.53;3.23;;;;;17.80;98607.00;;;;16644077;28;20223;-48
2022/11/09 12:24:22;;;;;;;3.77;3.37;;;;;17.70;98592.00;;;;16647019;28;20203;-48
2022/11/09 12:32:48;;;;;;;4.90;3.13;;;;;17.80;98591.00;;;;16643428;28;20222;-48
2022/11/09 12:41:14;;;;;;;3.30;2.97;;;;;18.00;98574.00;;;;16648361;28;20218;-47
2022/11/09 12:49:37;;;;;;;4.30;2.93;;;;;18.40;98572.00;;;;16642238;28;20234;-49
2022/11/09 12:58:00;;;;;;;3.70;3.40;;;;;18.60;98570.00;;;;16639841;28;21022;-48
2022/11/09 13:06:23;;;;;;;4.00;2.87;;;;;18.60;98574.00;;;;16655226;28;20582;-48
2022/11/09 13:14:46;;;;;;;6.03;3.47;;;;;18.40;98580.00;;;;16653028;28;20738;-49
2022/11/09 13:23:26;;;;;;;2.70;2.07;;;;;18.50;98574.00;;;;16657339;28;20277;-48
2022/11/09 13:32:30;;;;;;;2.53;2.33;;;;;18.90;98581.00;;;;16658168;28;20230;-48
2022/11/09 13:40:52;;;;;;;2.53;2.33;;;;;18.60;98595.00;;;;16655374;28;20588;-48
2022/11/09 13:49:48;;;;;;;3.23;2.20;;;;;18.70;98603.00;;;;16655293;28;20226;-49
2022/11/09 13:58:23;;;;;;;2.40;1.80;;;;;18.60;98605.00;;;;16361338;28;20233;-47
2022/11/09 14:06:45;;;;;;;1.53;1.43;;;;;18.60;98618.00;;;;16385199;28;20646;-49
2022/11/09 14:15:16;;;;;;;2.13;1.93;;;;;19.00;98625.00;;;;16382422;28;20228;-48
2022/11/09 14:23:39;;;;;;;2.43;2.23;;;;;19.20;98635.00;;;;16443153;28;20293;-49
2022/11/09 14:32:01;;;;;;;14.03;12.87;;;;;19.00;98643.00;;;;16654936;28;20240;-49
2022/11/09 14:40:26;;;;;;;4.93;4.53;;;;;18.10;98657.00;;;;16653355;28;20210;-48
2022/11/09 14:48:51;;;;;;;2.93;2.73;;;;;17.90;98667.00;;;;16654402;28;20735;-48
2022/11/09 14:57:14;;;;;;;3.30;2.50;;;;;17.30;98682.00;;;;16651118;28;20635;-49
2022/11/09 15:05:39;;;;;;;4.80;2.90;;;;;17.40;98685.00;;;;16646821;28;20305;-49
2022/11/09 15:14:12;;;;;;;3.80;3.50;;;;;17.90;98689.00;;;;16648475;28;20226;-48
2022/11/09 15:22:51;;;;;;;3.43;3.10;;;;;17.70;98691.00;;;;16652103;28;20710;-47
2022/11/09 15:31:17;;;;;;;4.80;3.30;;;;;17.60;98692.00;;;;16649324;28;20211;-48
2022/11/09 15:39:38;;;;;;;7.20;6.20;;;;;17.60;98687.00;;;;16630368;28;20226;-48
2022/11/09 15:48:02;;;;;;;3.43;3.13;;;;;17.20;98697.00;;;;16649079;28;20272;-49
2022/11/09 15:56:24;;;;;;;7.77;4.90;;;;;18.30;98697.00;;;;16646715;28;20333;-48
2022/11/09 16:04:46;;;;;;;5.43;4.67;;;;;17.10;98712.00;;;;16649066;28;20194;-49
2022/11/09 16:13:09;;;;;;;8.60;6.33;;;;;17.40;98714.00;;;;16647731;28;20230;-48
2022/11/09 16:21:31;;;;;;;19.03;11.93;;;;;16.40;98727.00;;;;16647170;28;20227;-47
2022/11/09 16:29:53;;;;;;;15.93;11.20;;;;;16.60;98740.00;;;;16642898;28;20227;-48
2022/11/09 16:38:15;;;;;;;9.40;8.47;;;;;16.10;98759.00;;;;16642942;28;20218;-48
2022/11/09 16:46:36;;;;;;;15.10;13.60;;;;;16.60;98768.00;;;;16644360;28;20222;-49
2022/11/09 16:54:59;;;;;;;24.40;16.90;;;;;17.20;98781.00;;;;16646883;28;20226;-48
2022/11/09 17:03:20;;;;;;;23.03;14.90;;;;;17.40;98781.00;;;;16644039;28;20230;-49
2022/11/09 17:11:43;;;;;;;14.00;6.00;;;;;16.90;98796.00;;;;16646907;28;20218;-49
2022/11/09 17:20:05;;;;;;;5.30;4.67;;;;;16.70;98796.00;;;;16644068;28;20301;-48
2022/11/09 17:28:28;;;;;;;6.77;5.47;;;;;16.40;98806.00;;;;16649252;28;20223;-48
2022/11/09 17:36:49;;;;;;;5.67;5.13;;;;;16.50;98820.00;;;;16643391;28;20227;-47
2022/11/09 17:45:12;;;;;;;7.70;6.03;;;;;16.40;98839.00;;;;16645369;28;20314;-48
2022/11/09 17:53:33;;;;;;;5.47;5.10;;;;;16.70;98844.00;;;;16655599;28;20218;-49
2022/11/09 18:01:55;;;;;;;6.57;5.90;;;;;17.30;98854.00;;;;16654593;28;20234;-48
2022/11/09 18:10:17;;;;;;;9.33;7.77;;;;;16.40;98844.00;;;;16653689;28;20264;-47
2022/11/09 18:18:39;;;;;;;7.97;7.17;;;;;16.60;98863.00;;;;16651849;28;20713;-48
2022/11/09 18:27:01;;;;;;;8.77;7.87;;;;;16.50;98878.00;;;;16655449;28;20219;-48
2022/11/09 18:35:23;;;;;;;7.60;6.80;;;;;16.50;98876.00;;;;16652484;28;20827;-48
2022/11/09 18:43:44;;;;;;;8.00;7.30;;;;;16.30;98874.00;;;;16650508;28;20199;-48
2022/11/09 18:52:07;;;;;;;9.63;8.23;;;;;16.20;98892.00;;;;16648997;28;20325;-48
2022/11/09 19:00:28;;;;;;;7.77;7.07;;;;;16.00;98900.00;;;;16649617;28;20296;-48
2022/11/09 19:17:29;;;;;;;8.13;7.43;;;;;16.50;98912.00;;;;16643916;28;20250;-49
2022/11/09 19:25:51;;;;;;;6.23;5.73;;;;;16.50;98921.00;;;;16650497;28;20214;-49
2022/11/09 19:34:14;;;;;;;5.70;5.30;;;;;16.30;98926.00;;;;16647512;28;20223;-47
2022/11/09 19:42:36;;;;;;;7.13;6.03;;;;;16.70;98938.00;;;;16641031;28;20673;-48
2022/11/09 19:50:57;;;;;;;18.20;12.40;;;;;16.90;98949.00;;;;16640047;28;20634;-48
2022/11/09 19:59:21;;;;;;;4.03;3.70;;;;;16.80;98956.00;;;;16642669;28;20246;-48
2022/11/09 20:07:42;;;;;;;3.30;3.00;;;;;16.60;98980.00;;;;16644662;28;20222;-48
2022/11/09 20:16:05;;;;;;;4.33;3.03;;;;;16.70;98988.00;;;;16642519;28;20239;-48
2022/11/09 20:24:26;;;;;;;3.80;3.40;;;;;16.60;99005.00;;;;16643489;28;20210;-48
2022/11/09 20:32:48;;;;;;;2.90;2.70;;;;;16.50;99006.00;;;;16642669;28;20226;-48
2022/11/09 20:41:12;;;;;;;3.40;3.10;;;;;17.00;99023.00;;;;16643292;28;20744;-48
2022/11/09 20:49:34;;;;;;;4.83;3.30;;;;;16.70;99035.00;;;;16644476;28;20223;-48
2022/11/09 20:57:55;;;;;;;6.17;5.40;;;;;16.70;99049.00;;;;16640394;28;20226;-48
2022/11/09 21:06:18;;;;;;;4.60;3.33;;;;;15.70;99058.00;;;;16640782;28;20309;-48
2022/11/09 21:14:38;;;;;;;4.83;4.37;;;;;15.70;99078.00;;;;16639516;28;20649;-48
2022/11/09 21:31:39;;;;;;;11.50;8.67;;;;;15.40;99088.00;;;;16655224;28;20839;-48
2022/11/09 21:40:02;;;;;;;6.10;5.27;;;;;16.10;99093.00;;;;16656215;28;20855;-48
2022/11/09 21:48:23;;;;;;;8.63;7.93;;;;;15.80;99102.00;;;;16653890;28;20223;-49
2022/11/09 21:56:47;;;;;;;4.77;4.37;;;;;15.20;99115.00;;;;16643333;28;20702;-49
2022/11/09 22:05:09;;;;;;;3.93;3.50;;;;;15.70;99123.00;;;;16651717;28;20206;-48
2022/11/09 22:22:10;;;;;;;5.20;4.80;;;;;15.00;99124.00;;;;16651793;28;20210;-48
2022/11/09 22:30:32;;;;;;;5.97;5.47;;;;;15.00;99135.00;;;;16654033;28;20238;-48
2022/11/09 22:38:54;;;;;;;27.80;25.00;;;;;15.10;99149.00;;;;16652923;28;20247;-48
2022/11/09 22:47:17;;;;;;;5.00;4.60;;;;;14.60;99164.00;;;;16649435;28;20309;-48
2022/11/09 22:55:38;;;;;;;3.77;3.27;;;;;14.50;99189.00;;;;16651138;28;20234;-48
2022/11/09 23:04:00;;;;;;;5.87;5.30;;;;;14.20;99205.00;;;;16643131;23;20239;-48
2022/11/09 23:12:21;;;;;;;19.50;17.47;;;;;14.50;99210.00;;;;16559991;28;20312;-49
2022/11/09 23:20:44;;;;;;;5.33;3.70;;;;;14.10;99248.00;;;;16514676;28;20313;-48
2022/11/09 23:29:05;;;;;;;6.00;4.37;;;;;14.10;99253.00;;;;16518372;28;20568;-48
2022/11/09 23:37:28;;;;;;;7.60;5.47;;;;;14.50;99263.00;;;;16529114;28;20232;-48
2022/11/09 23:45:49;;;;;;;5.47;3.70;;;;;14.20;99254.00;;;;16518278;28;20251;-48
2022/11/09 23:54:11;;;;;;;5.70;3.70;;;;;14.00;99275.00;;;;16519524;28;20232;-48
